Bruksela, Belgia

05:00 CET dnia 21-grudzień-2014 (GMT +0100)
Brussels National | Change Station
CLOSE
Current Station
Lotnisko
Location: Brussels,
n.p.m.: 190 ft
Najbliższa stacja pogodowa

Wysokość 190 ft 50.90 °N, 4.53 °E | Updated 10 minutes ago

Clear
pogodnie
39 ° F
Odczuwalna 33 ° F
Płn.
9
Wiatr zmienny Wiatr od PdZd

Dziś
Wysoka -- | Niska -- ° F
--% Prawdop. opadów
Wczoraj
Wysoka -- | Niska -- ° F
Precip. -- cali
8:42 AM 4:37 PM
Zmniejszający się sierp Księżyca, 1% visible
Ciśnienie 30.42 cali
Widzialność -9999.0 mil
chmury
czynnik chłodzący wiatru 33 ° F
Punkt rosy 36 ° F
Wilgotność 87%
Opady deszczu 0.00 cali
grubość pokrywy śnieżnej Niedostępne.
UV Niedostępne.
Pyłki Niedostępne.
Jakość powietrza Niedostępne.
Flu Activity Niedostępne.
METAR EBBR 210350Z 22008KT CAVOK 04/02 Q1030 NOSIG

More Conditions Fewer Conditions

Ciśnienie 30.42 cali
Widzialność -9999.0 mil
chmury
czynnik chłodzący wiatru 33 ° F
Punkt rosy 36 ° F
Wilgotność 87%
Opady deszczu 0.00 cali
grubość pokrywy śnieżnej Niedostępne.
UV Niedostępne.
Pyłki Niedostępne.
Jakość powietrza Niedostępne.
Flu Activity Niedostępne.
METAR EBBR 210350Z 22008KT CAVOK 04/02 Q1030 NOSIG

More Conditions Fewer Conditions

10-Day Weather Forecast

Almanac

Astronomia

Dec. 21, 2014 Wschód Zachów
Aktualny czas
Zmierzch cywilny
Zmierzch żeglarski
świt/zmierzch astronomiczny
Księżyc
całkowite oświetlenie
Długość dnia
Tomorrow will be .
, % of the Moon is Illuminated

Dzisiejsze ekstrema

Country Highs Country Lows

Community

WunderPhotos

Upload Photos

1,779,357 zdjęcia zostały przesłane!

WunderBlogs® & News

Nearby

Jakość powietrza

  Jakość powietrza czynnik AQ Zanieczyszczenie
Not available.

Głębokość pokrywy śnieżnej

Station Depth n.p.m.

Aktywność sejsmiczna

Miejscowość Distance Mag. Time & Date
Minimum magnitude displayed is 2.5.

Temperatury wody na wybrzeżu

Miejsce Temperatura

Najbliższa stacja pogodowa